Hakalau, HI (96710)

7:38 PM HST on August 29, 2014 (GMT -1000)
Hakalau | Change Station
CLOSE
Current Station
Personal Weather Station
Location: Hakalau, HI
Elevation: 1020 ft
Nearby Weather Stations
Active Advisory: High Surf Advisory

Elev 1020 ft 19.87 °N, 155.15 °W | Updated 3 minutes ago

Partly Cloudy
Partly Cloudy
70.6 °F
Feels Like 70.6 °F
N
0.0
Wind Variable Wind from SSW
Gusts 0.0 mph

Today
High -- | Low -- °F
--% Chance of Precip.
Yesterday
High -- | Low -- °F
Precip. -- in
6:04 AM 6:38 PM
Waxing Crescent, 19% visible
Pressure 29.89 in
Visibility 10.0 miles
Clouds Few 2400 ft
Few 6000 ft
Dew Point 70 °F
Humidity 96%
Rainfall 0.00 in
Snow Depth Not available.
UV 0 out of 12
Pollen Not available.
Air Quality Not available.
Flu Activity Not available.
METAR PHTO 300453Z 36006KT 10SM FEW024 FEW060 27/21 A2990 RMK AO2 SLP122 T02670211 $

More Conditions Fewer Conditions

Pressure 29.89 in
Visibility 10.0 miles
Clouds Few 2400 ft
Few 6000 ft
Dew Point 70 °F
Humidity 96%
Rainfall 0.00 in
Snow Depth Not available.
UV 0 out of 12
Pollen Not available.
Air Quality Not available.
Flu Activity Not available.
METAR PHTO 300453Z 36006KT 10SM FEW024 FEW060 27/21 A2990 RMK AO2 SLP122 T02670211 $

More Conditions Fewer Conditions

10-Day Weather Forecast

Almanac

Astronomy

Aug. 29, 2014 Rise Set
Actual Time 6:04 AM HST 6:38 PM HST
Civil Twilight 5:42 AM HST 7:00 PM HST
Nautical Twilight 5:15 AM HST 7:26 PM HST
Astronomical Twilight 4:49 AM HST 7:53 PM HST
Moon 9:28 AM HST (8/29) 9:21 PM HST (8/29)
Length of Visible Light 13h 18m
Length of Day
12h 33m
Tomorrow will be 1m 5s shorter.
Waxing Crescent, 19% of the Moon is Illuminated
Aug 30
Waxing Crescent
Sep 2
First Quarter
Sep 8
Full
Sep 15
Last Quarter
Sep 24
New

Yesterday's Extremes

State Highs State Lows

Community

WunderPhotos

Upload Photos

1,748,467 photos uploaded!

Nearby

Air Quality

  Air Quality AQ Index Pollutant
Yesterday Good
PM2.5

Snow Depth

Station Depth Elevation
No new snow has been reported.

Earthquake Activity

City Distance Mag. Time & Date
No recent earthquake activity has been reported nearby.
Minimum magnitude displayed is 2.5.

Coastal Water Temperatures

Place Temperature
No Stations Reporting

Nearby Weather Stations